createdAt,value
2023-04-17T00:01:32.537Z,9.23
2023-04-17T00:05:41.103Z,9.22
2023-04-17T00:09:51.386Z,9.23
2023-04-17T00:14:00.737Z,9.24
2023-04-17T00:18:09.212Z,9.27
2023-04-17T00:22:17.275Z,9.29
2023-04-17T00:26:25.307Z,9.28
2023-04-17T00:30:33.532Z,9.28
2023-04-17T00:34:43.352Z,9.28
2023-04-17T00:38:51.406Z,9.23
2023-04-17T00:43:02.890Z,9.14
2023-04-17T00:47:11.324Z,9.03
2023-04-17T00:51:19.289Z,8.94
2023-04-17T00:55:27.332Z,8.87
2023-04-17T00:59:35.694Z,8.77
2023-04-17T01:03:45.879Z,8.65
2023-04-17T01:07:53.804Z,8.52
2023-04-17T01:12:21.816Z,8.38
2023-04-17T01:16:31.326Z,8.28
2023-04-17T01:20:39.164Z,8.21
2023-04-17T01:24:47.312Z,8.13
2023-04-17T01:28:56.822Z,8.08
2023-04-17T01:33:07.617Z,8.04
2023-04-17T01:37:16.815Z,7.98
2023-04-17T01:41:24.517Z,7.92
2023-04-17T01:45:32.385Z,7.83
2023-04-17T01:49:40.253Z,7.75
2023-04-17T01:53:48.669Z,7.69
2023-04-17T01:57:56.815Z,7.63
2023-04-17T02:02:04.933Z,7.58
2023-04-17T02:06:13.332Z,7.59
2023-04-17T02:10:21.391Z,7.61
2023-04-17T02:14:31.292Z,7.66
2023-04-17T02:18:40.898Z,7.72
2023-04-17T02:22:48.401Z,7.74
2023-04-17T02:26:58.976Z,7.77
2023-04-17T02:31:10.587Z,7.82
2023-04-17T02:35:18.383Z,7.84
2023-04-17T02:39:27.480Z,7.81
2023-04-17T02:43:35.755Z,7.78
2023-04-17T02:47:43.565Z,7.78
2023-04-17T02:51:52.966Z,7.80
2023-04-17T02:56:01.121Z,7.89
2023-04-17T03:00:13.858Z,7.92
2023-04-17T03:04:22.505Z,7.90
2023-04-17T03:08:35.656Z,7.86
2023-04-17T03:12:43.798Z,7.82
2023-04-17T03:16:51.722Z,7.81
2023-04-17T03:20:59.934Z,7.81
2023-04-17T03:25:08.777Z,7.82
2023-04-17T03:29:17.635Z,7.82
2023-04-17T03:33:25.933Z,7.81
2023-04-17T03:37:34.055Z,7.79
2023-04-17T03:41:42.341Z,7.79
2023-04-17T03:45:51.147Z,7.82
2023-04-17T03:49:59.270Z,7.85
2023-04-17T03:54:08.078Z,7.88
2023-04-17T03:58:16.250Z,7.89
2023-04-17T04:02:26.680Z,7.89
2023-04-17T04:06:34.938Z,7.89
2023-04-17T04:10:45.272Z,7.89
2023-04-17T04:14:52.909Z,7.86
2023-04-17T04:19:01.064Z,7.88
2023-04-17T04:23:08.781Z,7.88
2023-04-17T04:27:18.190Z,7.89
2023-04-17T04:31:26.191Z,7.93
2023-04-17T04:35:35.559Z,7.98
2023-04-17T04:39:43.435Z,8.03
2023-04-17T04:43:51.616Z,8.08
2023-04-17T04:48:00.411Z,8.10
2023-04-17T04:52:08.519Z,8.14
2023-04-17T04:56:16.676Z,8.23
2023-04-17T05:00:25.426Z,8.34
2023-04-17T05:04:33.563Z,8.44
2023-04-17T05:08:41.683Z,8.53
2023-04-17T05:12:49.752Z,8.58
2023-04-17T05:16:57.765Z,8.65
2023-04-17T05:21:05.814Z,8.85
2023-04-17T05:25:14.236Z,9.08
2023-04-17T05:29:22.059Z,9.29
2023-04-17T05:33:37.686Z,9.48
2023-04-17T05:37:48.447Z,9.62
2023-04-17T05:41:56.265Z,9.82
2023-04-17T05:46:06.200Z,10.03
2023-04-17T05:50:14.562Z,10.11
2023-04-17T05:54:24.797Z,10.11
2023-04-17T05:58:40.376Z,10.17
2023-04-17T06:02:48.427Z,10.31
2023-04-17T06:06:58.743Z,10.39
2023-04-17T06:11:07.126Z,10.43
2023-04-17T06:15:18.743Z,10.53
2023-04-17T06:19:29.254Z,10.62
2023-04-17T06:23:37.795Z,10.73
2023-04-17T06:27:47.170Z,10.83
2023-04-17T06:31:55.106Z,10.93
2023-04-17T06:36:04.789Z,11.03
2023-04-17T06:40:15.771Z,11.10
2023-04-17T06:44:29.126Z,11.14
2023-04-17T06:48:39.499Z,11.18
2023-04-17T06:52:53.488Z,11.23
2023-04-17T06:57:09.676Z,11.28
2023-04-17T07:01:17.520Z,11.30
2023-04-17T07:05:26.861Z,11.18
2023-04-17T07:09:41.208Z,11.07
2023-04-17T07:13:49.356Z,11.04
2023-04-17T07:17:57.728Z,11.09
2023-04-17T07:22:12.697Z,11.13
2023-04-17T07:26:19.974Z,11.22
2023-04-17T07:30:28.905Z,11.26
2023-04-17T07:34:41.386Z,11.25
2023-04-17T07:38:52.662Z,11.34
2023-04-17T07:43:11.011Z,11.52
2023-04-17T07:47:18.632Z,11.63
2023-04-17T07:51:34.921Z,11.66
2023-04-17T07:55:44.416Z,11.71
2023-04-17T07:59:57.495Z,11.83
2023-04-17T08:04:05.961Z,12.06
2023-04-17T08:08:22.328Z,12.24
2023-04-17T08:12:30.983Z,12.26
2023-04-17T08:16:40.817Z,12.30
2023-04-17T08:20:51.752Z,12.48
2023-04-17T08:24:59.903Z,12.60
2023-04-17T08:29:08.711Z,12.77
2023-04-17T08:33:19.254Z,12.87
2023-04-17T08:37:32.517Z,13.03
2023-04-17T08:41:51.732Z,13.21
2023-04-17T08:46:01.096Z,13.38
2023-04-17T08:50:17.131Z,13.44
2023-04-17T08:54:27.814Z,13.46
2023-04-17T08:58:37.355Z,13.41
2023-04-17T09:03:08.086Z,13.52
2023-04-17T09:07:16.990Z,13.62
2023-04-17T09:11:24.764Z,13.69
2023-04-17T09:15:33.279Z,13.65
2023-04-17T09:19:43.023Z,13.68
2023-04-17T09:23:55.950Z,13.67
2023-04-17T09:28:14.817Z,13.66
2023-04-17T09:32:26.020Z,13.59
2023-04-17T09:36:37.089Z,13.64
2023-04-17T09:40:45.319Z,13.86
2023-04-17T09:44:59.537Z,14.11
2023-04-17T09:49:18.946Z,14.24
2023-04-17T09:53:26.622Z,14.32
2023-04-17T09:57:35.150Z,14.55
2023-04-17T10:01:45.246Z,14.63
2023-04-17T10:06:00.271Z,14.60
2023-04-17T10:10:12.165Z,14.73
2023-04-17T10:14:29.390Z,14.85
2023-04-17T10:18:37.336Z,14.83
2023-04-17T10:22:45.614Z,14.79
2023-04-17T10:26:53.170Z,14.89
2023-04-17T10:31:06.587Z,15.01
2023-04-17T10:35:38.842Z,15.08
2023-04-17T10:39:55.565Z,15.21
2023-04-17T10:44:09.377Z,15.41
2023-04-17T10:48:25.001Z,15.48
2023-04-17T10:52:46.119Z,15.47
2023-04-17T10:56:58.828Z,15.41
2023-04-17T11:01:12.805Z,15.32
2023-04-17T11:05:21.079Z,15.13
2023-04-17T11:09:30.902Z,15.03
2023-04-17T11:13:42.723Z,15.08
2023-04-17T11:17:51.034Z,15.10
2023-04-17T11:22:01.764Z,15.25
2023-04-17T11:26:10.256Z,15.38
2023-04-17T11:30:27.468Z,15.49
2023-04-17T11:34:36.105Z,15.59
2023-04-17T11:38:50.910Z,15.54
2023-04-17T11:42:58.630Z,15.66
2023-04-17T11:47:06.833Z,15.72
2023-04-17T11:51:14.627Z,15.66
2023-04-17T11:55:22.871Z,15.71
2023-04-17T11:59:34.911Z,15.80
2023-04-17T12:03:45.245Z,15.89
2023-04-17T12:08:04.685Z,15.89
2023-04-17T12:12:12.307Z,15.93
2023-04-17T12:16:22.415Z,16.08
2023-04-17T12:20:30.440Z,16.06
2023-04-17T12:24:38.453Z,15.65
2023-04-17T12:28:46.887Z,15.38
2023-04-17T12:32:54.899Z,15.24
2023-04-17T12:37:02.160Z,15.48
2023-04-17T12:41:09.848Z,15.58
2023-04-17T12:45:18.286Z,15.52
2023-04-17T12:49:25.654Z,15.63
2023-04-17T12:53:33.103Z,15.82
2023-04-17T12:57:41.192Z,15.90
2023-04-17T13:01:48.985Z,15.78
2023-04-17T13:05:57.219Z,15.92
2023-04-17T13:10:06.564Z,16.08
2023-04-17T13:14:15.425Z,16.03
2023-04-17T13:18:23.029Z,16.08
2023-04-17T13:22:30.686Z,16.20
2023-04-17T13:26:39.937Z,16.08
2023-04-17T13:30:47.637Z,15.81
2023-04-17T13:34:58.627Z,15.92
2023-04-17T13:39:11.572Z,16.11
2023-04-17T13:43:19.878Z,15.97
2023-04-17T13:47:27.622Z,16.02
2023-04-17T13:51:36.138Z,16.32
2023-04-17T13:55:43.881Z,16.54
2023-04-17T13:59:52.671Z,16.33
2023-04-17T14:04:00.914Z,16.06
2023-04-17T14:08:09.418Z,15.97
2023-04-17T14:12:20.905Z,16.01
2023-04-17T14:16:29.053Z,16.02
2023-04-17T14:20:36.684Z,15.90
2023-04-17T14:24:45.767Z,15.82
2023-04-17T14:28:53.627Z,15.87
2023-04-17T14:33:01.275Z,15.83
2023-04-17T14:37:09.102Z,15.74
2023-04-17T14:41:16.704Z,15.59
2023-04-17T14:45:24.566Z,15.51
2023-04-17T14:49:34.913Z,15.66
2023-04-17T14:53:42.896Z,15.66
2023-04-17T14:57:50.310Z,15.56
2023-04-17T15:01:58.507Z,15.57
2023-04-17T15:06:09.785Z,15.57
2023-04-17T15:10:18.748Z,15.49
2023-04-17T15:14:29.450Z,15.48
2023-04-17T15:18:37.152Z,15.44
2023-04-17T15:22:52.662Z,15.52
2023-04-17T15:27:00.959Z,15.46
2023-04-17T15:31:08.950Z,15.34
2023-04-17T15:35:16.524Z,15.21
2023-04-17T15:39:24.516Z,15.09
2023-04-17T15:43:32.104Z,14.94
2023-04-17T15:47:40.357Z,14.76
2023-04-17T15:51:49.010Z,14.59
2023-04-17T15:55:57.297Z,14.45
2023-04-17T16:00:06.488Z,14.38
2023-04-17T16:04:14.762Z,14.32
2023-04-17T16:08:22.396Z,14.25
2023-04-17T16:12:31.352Z,14.19
2023-04-17T16:16:39.834Z,14.15
2023-04-17T16:20:47.463Z,14.10
2023-04-17T16:24:55.617Z,14.07
2023-04-17T16:29:03.403Z,14.10
2023-04-17T16:33:11.265Z,14.19
2023-04-17T16:37:18.870Z,14.27
2023-04-17T16:41:26.528Z,14.28
2023-04-17T16:45:33.730Z,14.19
2023-04-17T16:49:42.973Z,14.03
2023-04-17T16:53:52.242Z,13.90
2023-04-17T16:58:00.857Z,13.82
2023-04-17T17:02:08.712Z,13.76
2023-04-17T17:06:17.153Z,13.71
2023-04-17T17:10:25.122Z,13.63
2023-04-17T17:14:32.785Z,13.55
2023-04-17T17:18:41.297Z,13.50
2023-04-17T17:22:52.232Z,13.51
2023-04-17T17:27:00.073Z,13.54
2023-04-17T17:31:09.398Z,13.56
2023-04-17T17:35:18.258Z,13.58
2023-04-17T17:39:26.240Z,13.59
2023-04-17T17:43:33.866Z,13.58
2023-04-17T17:47:41.965Z,13.55
2023-04-17T17:51:49.836Z,13.50
2023-04-17T17:55:58.016Z,13.46
2023-04-17T18:00:06.130Z,13.45
2023-04-17T18:04:15.843Z,13.46
2023-04-17T18:08:24.405Z,13.44
2023-04-17T18:12:32.440Z,13.40
2023-04-17T18:16:42.942Z,13.35
2023-04-17T18:20:51.473Z,13.31
2023-04-17T18:24:59.747Z,13.23
2023-04-17T18:29:07.940Z,13.18
2023-04-17T18:33:18.650Z,13.10
2023-04-17T18:37:27.296Z,13.06
2023-04-17T18:41:35.889Z,13.02
2023-04-17T18:45:44.026Z,12.98
2023-04-17T18:49:54.970Z,12.94
2023-04-17T18:54:03.797Z,12.89
2023-04-17T18:58:14.208Z,12.85
2023-04-17T19:02:23.002Z,12.84
2023-04-17T19:06:31.578Z,12.82
2023-04-17T19:10:40.242Z,12.78
2023-04-17T19:14:51.843Z,12.73
2023-04-17T19:18:59.429Z,12.67
2023-04-17T19:23:12.751Z,12.60
2023-04-17T19:27:21.251Z,12.56
2023-04-17T19:31:28.989Z,12.55
2023-04-17T19:35:37.000Z,12.55
2023-04-17T19:39:45.294Z,12.53
2023-04-17T19:43:54.406Z,12.50
2023-04-17T19:48:03.109Z,12.47
2023-04-17T19:52:15.038Z,12.46
2023-04-17T19:56:24.465Z,12.44
2023-04-17T20:00:32.384Z,12.40
2023-04-17T20:04:40.058Z,12.34
2023-04-17T20:08:47.701Z,12.29
2023-04-17T20:12:57.234Z,12.22
2023-04-17T20:17:05.228Z,12.15
2023-04-17T20:21:13.335Z,12.13
2023-04-17T20:25:20.940Z,12.07
2023-04-17T20:29:29.021Z,12.00
2023-04-17T20:33:36.615Z,11.95
2023-04-17T20:37:46.197Z,11.92
2023-04-17T20:41:54.108Z,11.91
2023-04-17T20:46:01.661Z,11.87
2023-04-17T20:50:11.825Z,11.79
2023-04-17T20:54:23.345Z,11.69
2023-04-17T20:58:32.398Z,11.61
2023-04-17T21:02:41.272Z,11.50
2023-04-17T21:06:50.585Z,11.42
2023-04-17T21:10:58.072Z,11.33
2023-04-17T21:15:05.920Z,11.25
2023-04-17T21:19:13.563Z,11.17
2023-04-17T21:23:21.290Z,11.11
2023-04-17T21:27:29.064Z,11.08
2023-04-17T21:31:37.351Z,11.02
2023-04-17T21:35:44.810Z,10.93
2023-04-17T21:39:53.025Z,10.87
2023-04-17T21:44:02.723Z,10.83
2023-04-17T21:48:10.465Z,10.80
2023-04-17T21:52:18.629Z,10.80
2023-04-17T21:56:26.857Z,10.75
2023-04-17T22:00:34.582Z,10.71
2023-04-17T22:04:43.071Z,10.65
2023-04-17T22:08:52.317Z,10.63
2023-04-17T22:12:59.835Z,10.64
2023-04-17T22:17:07.975Z,10.62
2023-04-17T22:21:15.746Z,10.58
2023-04-17T22:25:23.270Z,10.53
2023-04-17T22:29:31.118Z,10.48
2023-04-17T22:33:38.867Z,10.46
2023-04-17T22:37:46.785Z,10.45
2023-04-17T22:41:54.405Z,10.40
2023-04-17T22:46:02.432Z,10.33
2023-04-17T22:50:11.815Z,10.30
2023-04-17T22:54:23.093Z,10.25
2023-04-17T22:58:34.052Z,10.21
2023-04-17T23:02:42.146Z,10.14
2023-04-17T23:06:49.820Z,10.11
2023-04-17T23:11:05.311Z,10.09
2023-04-17T23:15:14.134Z,10.07
2023-04-17T23:19:22.566Z,10.03
2023-04-17T23:23:30.861Z,9.98
2023-04-17T23:27:38.160Z,9.91
2023-04-17T23:31:46.746Z,9.92
2023-04-17T23:35:54.533Z,9.91
2023-04-17T23:40:02.327Z,9.89
2023-04-17T23:44:10.495Z,9.83
2023-04-17T23:48:17.893Z,9.79
2023-04-17T23:52:26.269Z,9.78
2023-04-17T23:56:34.188Z,9.77
